createdAt,value
2022-10-27T00:02:21.226Z,13.17
2022-10-27T00:04:49.289Z,13.14
2022-10-27T00:07:17.147Z,13.06
2022-10-27T00:09:44.947Z,13.12
2022-10-27T00:12:14.235Z,13.03
2022-10-27T00:14:42.401Z,12.98
2022-10-27T00:17:10.230Z,12.92
2022-10-27T00:19:38.060Z,12.86
2022-10-27T00:22:05.901Z,12.84
2022-10-27T00:24:33.765Z,12.93
2022-10-27T00:27:01.583Z,12.88
2022-10-27T00:29:31.803Z,12.89
2022-10-27T00:31:59.783Z,12.92
2022-10-27T00:34:27.744Z,13.01
2022-10-27T00:36:55.781Z,13.00
2022-10-27T00:39:23.760Z,13.04
2022-10-27T00:41:51.671Z,13.05
2022-10-27T00:44:34.314Z,13.11
2022-10-27T00:47:05.418Z,13.11
2022-10-27T00:49:38.133Z,12.95
2022-10-27T00:52:08.504Z,12.92
2022-10-27T00:54:39.843Z,12.82
2022-10-27T00:57:08.824Z,12.78
2022-10-27T00:59:38.757Z,12.74
2022-10-27T01:02:07.788Z,12.63
2022-10-27T01:04:39.620Z,12.62
2022-10-27T01:07:07.699Z,12.59
2022-10-27T01:09:35.651Z,12.64
2022-10-27T01:12:03.440Z,12.56
2022-10-27T01:14:31.504Z,12.47
2022-10-27T01:17:11.545Z,12.51
2022-10-27T01:19:59.926Z,12.51
2022-10-27T01:22:30.313Z,12.48
2022-10-27T01:25:05.061Z,12.46
2022-10-27T01:27:45.792Z,12.52
2022-10-27T01:30:15.546Z,12.45
2022-10-27T01:32:57.424Z,12.42
2022-10-27T01:35:31.612Z,12.48
2022-10-27T01:38:04.797Z,12.45
2022-10-27T01:40:36.861Z,12.41
2022-10-27T01:43:08.738Z,12.40
2022-10-27T01:45:39.080Z,12.36
2022-10-27T01:48:09.440Z,12.29
2022-10-27T01:50:56.845Z,12.36
2022-10-27T01:53:27.670Z,12.29
2022-10-27T01:56:03.837Z,12.31
2022-10-27T01:58:49.405Z,12.37
2022-10-27T02:01:27.637Z,12.29
2022-10-27T02:04:01.340Z,12.26
2022-10-27T02:06:32.873Z,12.24
2022-10-27T02:09:04.625Z,12.25
2022-10-27T02:11:34.858Z,12.23
2022-10-27T02:14:02.944Z,12.22
2022-10-27T02:16:33.657Z,12.20
2022-10-27T02:19:06.551Z,12.13
2022-10-27T02:21:34.353Z,12.19
2022-10-27T02:24:02.200Z,12.17
2022-10-27T02:26:33.591Z,12.13
2022-10-27T02:29:03.523Z,12.11
2022-10-27T02:31:34.525Z,12.15
2022-10-27T02:34:04.157Z,12.09
2022-10-27T02:36:32.396Z,12.06
2022-10-27T02:39:00.225Z,12.08
2022-10-27T02:41:28.086Z,12.11
2022-10-27T02:43:56.019Z,12.02
2022-10-27T02:46:23.851Z,11.99
2022-10-27T02:48:51.706Z,12.04
2022-10-27T02:51:20.913Z,12.13
2022-10-27T02:53:48.703Z,12.08
2022-10-27T02:56:16.553Z,12.05
2022-10-27T02:58:44.485Z,12.08
2022-10-27T03:01:12.504Z,12.01
2022-10-27T03:03:40.427Z,12.09
2022-10-27T03:06:08.327Z,12.11
2022-10-27T03:08:37.509Z,12.17
2022-10-27T03:11:05.450Z,12.14
2022-10-27T03:13:33.328Z,12.18
2022-10-27T03:16:01.137Z,12.30
2022-10-27T03:18:29.043Z,12.37
2022-10-27T03:20:56.936Z,12.46
2022-10-27T03:23:24.886Z,12.51
2022-10-27T03:25:57.859Z,12.58
2022-10-27T03:28:30.141Z,12.69
2022-10-27T03:30:58.112Z,12.69
2022-10-27T03:33:25.971Z,12.86
2022-10-27T03:35:53.828Z,12.92
2022-10-27T03:38:21.726Z,13.00
2022-10-27T03:40:49.568Z,13.10
2022-10-27T03:43:18.816Z,13.15
2022-10-27T03:45:48.820Z,13.14
2022-10-27T03:48:17.091Z,13.17
2022-10-27T03:50:47.086Z,13.15
2022-10-27T03:53:15.281Z,13.23
2022-10-27T03:55:43.200Z,13.25
2022-10-27T03:58:16.443Z,13.25
2022-10-27T04:00:47.406Z,13.18
2022-10-27T04:03:15.371Z,13.14
2022-10-27T04:05:43.194Z,13.09
2022-10-27T04:08:11.137Z,13.14
2022-10-27T04:10:39.112Z,13.14
2022-10-27T04:13:06.930Z,13.18
2022-10-27T04:15:34.854Z,13.15
2022-10-27T04:18:04.318Z,13.22
2022-10-27T04:20:32.441Z,13.13
2022-10-27T04:23:00.706Z,13.16
2022-10-27T04:25:28.630Z,13.27
2022-10-27T04:28:02.077Z,13.22
2022-10-27T04:30:30.001Z,13.28
2022-10-27T04:32:58.318Z,13.29
2022-10-27T04:35:27.730Z,13.18
2022-10-27T04:37:56.410Z,13.17
2022-10-27T04:40:24.454Z,13.17
2022-10-27T04:42:52.333Z,13.16
2022-10-27T04:45:20.316Z,13.09
2022-10-27T04:47:48.355Z,13.13
2022-10-27T04:50:17.314Z,13.13
2022-10-27T04:52:55.345Z,13.14
2022-10-27T04:55:23.538Z,13.05
2022-10-27T04:57:51.451Z,13.02
2022-10-27T05:00:19.644Z,13.00
2022-10-27T05:02:53.934Z,13.04
2022-10-27T05:05:22.616Z,13.02
2022-10-27T05:07:55.833Z,13.05
2022-10-27T05:10:23.984Z,13.00
2022-10-27T05:12:52.445Z,13.01
2022-10-27T05:15:20.914Z,13.09
2022-10-27T05:17:49.176Z,13.07
2022-10-27T05:20:17.591Z,12.98
2022-10-27T05:22:45.498Z,13.11
2022-10-27T05:25:14.799Z,13.00
2022-10-27T05:27:42.632Z,12.91
2022-10-27T05:30:13.062Z,12.85
2022-10-27T05:32:45.091Z,12.83
2022-10-27T05:35:15.486Z,12.71
2022-10-27T05:37:45.469Z,12.69
2022-10-27T05:40:15.590Z,12.73
2022-10-27T05:42:51.251Z,12.61
2022-10-27T05:45:20.121Z,12.42
2022-10-27T05:47:48.019Z,12.32
2022-10-27T05:50:16.066Z,12.16
2022-10-27T05:52:47.002Z,12.11
2022-10-27T05:55:16.440Z,12.08
2022-10-27T05:57:44.291Z,11.96
2022-10-27T06:00:12.562Z,11.95
2022-10-27T06:02:40.465Z,11.93
2022-10-27T06:05:09.004Z,11.88
2022-10-27T06:07:36.879Z,11.90
2022-10-27T06:10:05.337Z,11.90
2022-10-27T06:12:34.615Z,11.89
2022-10-27T06:15:02.696Z,11.84
2022-10-27T06:17:30.582Z,11.89
2022-10-27T06:19:58.455Z,11.92
2022-10-27T06:22:26.240Z,11.91
2022-10-27T06:24:54.128Z,11.99
2022-10-27T06:27:21.946Z,12.06
2022-10-27T06:29:51.191Z,12.11
2022-10-27T06:32:19.053Z,12.15
2022-10-27T06:34:47.023Z,12.19
2022-10-27T06:37:14.819Z,12.25
2022-10-27T06:39:42.954Z,12.25
2022-10-27T06:42:10.841Z,12.38
2022-10-27T06:44:40.488Z,12.38
2022-10-27T06:47:09.761Z,12.37
2022-10-27T06:49:37.643Z,12.32
2022-10-27T06:52:05.840Z,12.23
2022-10-27T06:54:33.698Z,12.19
2022-10-27T06:57:01.555Z,12.20
2022-10-27T06:59:29.438Z,12.21
2022-10-27T07:01:57.390Z,12.21
2022-10-27T07:04:26.671Z,12.25
2022-10-27T07:06:54.530Z,12.30
2022-10-27T07:09:22.450Z,12.38
2022-10-27T07:11:50.244Z,12.39
2022-10-27T07:14:18.088Z,12.37
2022-10-27T07:16:45.869Z,12.37
2022-10-27T07:19:13.760Z,12.39
2022-10-27T07:21:43.100Z,12.40
2022-10-27T07:24:14.387Z,12.36
2022-10-27T07:26:42.563Z,12.50
2022-10-27T07:29:10.401Z,12.55
2022-10-27T07:31:39.027Z,12.60
2022-10-27T07:34:06.952Z,12.62
2022-10-27T07:36:34.814Z,12.64
2022-10-27T07:39:04.833Z,12.74
2022-10-27T07:41:32.724Z,12.83
2022-10-27T07:44:00.602Z,13.00
2022-10-27T07:46:28.509Z,13.08
2022-10-27T07:48:56.379Z,13.03
2022-10-27T07:51:24.331Z,13.14
2022-10-27T07:53:55.520Z,13.22
2022-10-27T07:56:27.237Z,13.36
2022-10-27T07:58:55.111Z,13.52
2022-10-27T08:01:23.057Z,13.56
2022-10-27T08:03:51.932Z,13.71
2022-10-27T08:06:20.590Z,13.79
2022-10-27T08:08:48.654Z,13.83
2022-10-27T08:11:16.538Z,13.77
2022-10-27T08:13:45.902Z,13.91
2022-10-27T08:16:13.808Z,14.12
2022-10-27T08:18:41.770Z,14.11
2022-10-27T08:21:09.637Z,14.15
2022-10-27T08:23:38.454Z,14.17
2022-10-27T08:26:06.516Z,14.26
2022-10-27T08:28:34.347Z,14.27
2022-10-27T08:31:03.637Z,14.26
2022-10-27T08:33:31.613Z,14.13
2022-10-27T08:36:02.214Z,14.28
2022-10-27T08:38:32.830Z,14.16
2022-10-27T08:41:24.064Z,14.18
2022-10-27T08:44:10.548Z,14.32
2022-10-27T08:46:44.220Z,14.31
2022-10-27T08:49:20.816Z,14.59
2022-10-27T08:51:49.604Z,14.73
2022-10-27T08:54:17.462Z,14.80
2022-10-27T08:56:45.963Z,14.87
2022-10-27T08:59:16.213Z,14.81
2022-10-27T09:01:49.841Z,15.15
2022-10-27T09:04:25.647Z,15.48
2022-10-27T09:07:03.827Z,15.45
2022-10-27T09:09:36.433Z,15.61
2022-10-27T09:12:12.155Z,15.95
2022-10-27T09:15:04.439Z,15.88
2022-10-27T09:17:35.682Z,16.12
2022-10-27T09:20:07.717Z,16.23
2022-10-27T09:22:39.104Z,16.39
2022-10-27T09:25:15.205Z,16.22
2022-10-27T09:27:43.734Z,16.02
2022-10-27T09:30:14.025Z,16.07
2022-10-27T09:32:47.614Z,16.24
2022-10-27T09:35:18.996Z,16.45
2022-10-27T09:37:49.220Z,16.32
2022-10-27T09:40:19.019Z,16.82
2022-10-27T09:42:48.120Z,16.98
2022-10-27T09:45:17.948Z,16.78
2022-10-27T09:47:50.039Z,16.57
2022-10-27T09:50:20.608Z,16.76
2022-10-27T09:52:48.761Z,17.01
2022-10-27T09:55:17.665Z,16.74
2022-10-27T09:57:47.455Z,16.77
2022-10-27T10:00:27.029Z,16.93
2022-10-27T10:05:32.617Z,17.33
2022-10-27T10:08:14.263Z,17.60
2022-10-27T10:10:54.846Z,17.52
2022-10-27T10:13:23.769Z,17.81
2022-10-27T10:16:07.393Z,17.90
2022-10-27T10:18:37.074Z,18.13
2022-10-27T10:21:06.368Z,18.08
2022-10-27T10:23:36.054Z,18.04
2022-10-27T10:26:06.960Z,17.91
2022-10-27T10:28:36.487Z,18.42
2022-10-27T10:31:06.872Z,18.50
2022-10-27T10:33:37.846Z,18.35
2022-10-27T10:36:19.563Z,18.18
2022-10-27T10:38:51.673Z,18.31
2022-10-27T10:41:21.156Z,18.21
2022-10-27T10:44:09.211Z,18.29
2022-10-27T10:46:37.889Z,18.38
2022-10-27T10:49:07.947Z,18.17
2022-10-27T10:51:36.913Z,18.55
2022-10-27T10:54:08.194Z,18.74
2022-10-27T10:56:37.541Z,19.14
2022-10-27T10:59:08.962Z,19.25
2022-10-27T11:01:45.929Z,19.30
2022-10-27T11:04:18.056Z,19.17
2022-10-27T11:07:00.439Z,19.37
2022-10-27T11:09:30.293Z,19.61
2022-10-27T11:11:58.454Z,19.75
2022-10-27T11:14:26.951Z,20.00
2022-10-27T11:17:00.245Z,20.35
2022-10-27T11:19:36.363Z,20.64
2022-10-27T11:22:06.875Z,20.30
2022-10-27T11:24:40.638Z,20.48
2022-10-27T11:27:13.993Z,20.67
2022-10-27T11:29:46.239Z,20.64
2022-10-27T11:32:17.947Z,20.93
2022-10-27T11:34:51.634Z,20.47
2022-10-27T11:37:23.574Z,19.78
2022-10-27T11:39:55.338Z,19.77
2022-10-27T11:42:29.010Z,20.20
2022-10-27T11:45:04.515Z,19.73
2022-10-27T11:47:34.788Z,19.70
2022-10-27T11:50:07.236Z,19.50
2022-10-27T11:52:37.954Z,19.20
2022-10-27T11:55:08.034Z,18.90
2022-10-27T11:57:43.205Z,19.17
2022-10-27T12:00:16.793Z,19.29
2022-10-27T12:03:21.215Z,20.13
2022-10-27T12:05:54.795Z,19.71
2022-10-27T12:11:09.374Z,20.10
2022-10-27T12:13:42.848Z,20.43
2022-10-27T12:16:16.703Z,20.42
2022-10-27T12:18:45.431Z,20.02
2022-10-27T12:21:20.471Z,20.06
2022-10-27T12:23:54.335Z,20.39
2022-10-27T12:26:26.885Z,19.93
2022-10-27T12:28:55.836Z,19.60
2022-10-27T12:31:26.688Z,19.88
2022-10-27T12:33:57.294Z,19.81
2022-10-27T12:39:09.347Z,20.05
2022-10-27T12:41:41.836Z,20.14
2022-10-27T12:44:18.552Z,20.31
2022-10-27T12:47:02.730Z,20.57
2022-10-27T12:49:36.775Z,20.35
2022-10-27T12:52:12.071Z,19.87
2022-10-27T12:54:52.629Z,20.60
2022-10-27T12:57:32.602Z,20.91
2022-10-27T13:00:06.382Z,21.35
2022-10-27T13:02:37.370Z,20.98
2022-10-27T13:05:26.822Z,21.95
2022-10-27T13:08:16.728Z,22.49
2022-10-27T13:11:01.913Z,22.87
2022-10-27T13:13:57.941Z,22.85
2022-10-27T13:16:33.267Z,21.83
2022-10-27T13:19:25.175Z,22.38
2022-10-27T13:21:57.621Z,21.97
2022-10-27T13:24:32.055Z,21.62
2022-10-27T13:27:03.789Z,21.54
2022-10-27T13:29:38.430Z,21.50
2022-10-27T13:32:32.869Z,20.90
2022-10-27T13:35:35.751Z,20.94
2022-10-27T13:38:22.383Z,21.07
2022-10-27T13:40:52.883Z,20.81
2022-10-27T13:43:49.112Z,20.60
2022-10-27T13:46:19.421Z,20.15
2022-10-27T13:48:49.054Z,19.87
2022-10-27T13:51:48.503Z,20.25
2022-10-27T13:54:52.070Z,20.18
2022-10-27T13:57:44.600Z,19.89
2022-10-27T14:00:15.129Z,19.54
2022-10-27T14:02:55.033Z,19.42
2022-10-27T14:05:34.333Z,19.19
2022-10-27T14:08:02.571Z,19.04
2022-10-27T14:10:30.932Z,19.09
2022-10-27T14:13:00.245Z,19.12
2022-10-27T14:15:29.541Z,19.14
2022-10-27T14:17:58.151Z,19.17
2022-10-27T14:20:28.784Z,19.05
2022-10-27T14:23:03.915Z,18.97
2022-10-27T14:25:32.737Z,18.97
2022-10-27T14:28:15.299Z,18.83
2022-10-27T14:30:43.588Z,18.79
2022-10-27T14:33:18.939Z,18.81
2022-10-27T14:35:46.846Z,18.75
2022-10-27T14:38:16.710Z,18.80
2022-10-27T14:40:44.531Z,18.66
2022-10-27T14:43:20.166Z,18.83
2022-10-27T14:45:50.551Z,18.80
2022-10-27T14:48:25.390Z,18.67
2022-10-27T14:50:54.144Z,18.66
2022-10-27T14:53:27.276Z,18.32
2022-10-27T14:56:07.467Z,18.11
2022-10-27T14:58:36.782Z,18.05
2022-10-27T15:01:04.719Z,17.97
2022-10-27T15:03:35.844Z,17.84
2022-10-27T15:06:03.919Z,17.77
2022-10-27T15:08:36.185Z,17.75
2022-10-27T15:11:07.231Z,17.73
2022-10-27T15:13:36.691Z,17.69
2022-10-27T15:16:11.487Z,17.73
2022-10-27T15:18:41.394Z,17.59
2022-10-27T15:21:11.478Z,17.51
2022-10-27T15:23:42.105Z,17.53
2022-10-27T15:26:13.958Z,17.39
2022-10-27T15:28:43.496Z,17.36
2022-10-27T15:31:11.557Z,17.35
2022-10-27T15:33:41.381Z,17.29
2022-10-27T15:36:19.005Z,17.27
2022-10-27T15:38:50.154Z,17.20
2022-10-27T15:41:21.683Z,17.15
2022-10-27T15:43:52.106Z,17.15
2022-10-27T15:46:30.880Z,17.05
2022-10-27T15:49:23.615Z,17.02
2022-10-27T15:51:53.148Z,17.01
2022-10-27T15:54:31.850Z,17.00
2022-10-27T15:56:59.875Z,16.95
2022-10-27T15:59:29.860Z,17.03
2022-10-27T16:02:01.429Z,16.89
2022-10-27T16:04:31.822Z,16.77
2022-10-27T16:07:31.620Z,16.71
2022-10-27T16:09:59.774Z,16.66
2022-10-27T16:12:38.246Z,16.61
2022-10-27T16:15:16.773Z,16.48
2022-10-27T16:17:46.947Z,16.43
2022-10-27T16:20:18.007Z,16.40
2022-10-27T16:22:46.040Z,16.30
2022-10-27T16:25:14.096Z,16.20
2022-10-27T16:27:42.189Z,16.13
2022-10-27T16:30:16.922Z,16.05
2022-10-27T16:32:46.025Z,16.02
2022-10-27T16:35:14.886Z,15.96
2022-10-27T16:37:42.823Z,15.95
2022-10-27T16:40:13.549Z,15.87
2022-10-27T16:42:44.387Z,15.79
2022-10-27T16:45:15.058Z,15.70
2022-10-27T16:47:43.397Z,15.70
2022-10-27T16:50:11.681Z,15.62
2022-10-27T16:52:39.822Z,15.62
2022-10-27T16:55:10.060Z,15.69
2022-10-27T16:57:38.148Z,15.57
2022-10-27T17:00:07.480Z,15.66
2022-10-27T17:02:36.850Z,15.68
2022-10-27T17:05:05.048Z,15.69
2022-10-27T17:07:32.981Z,15.67
2022-10-27T17:10:00.975Z,15.67
2022-10-27T17:12:29.134Z,15.62
2022-10-27T17:14:56.997Z,15.64
2022-10-27T17:17:25.027Z,15.59
2022-10-27T17:19:54.238Z,15.63
2022-10-27T17:22:22.134Z,15.57
2022-10-27T17:24:50.021Z,15.54
2022-10-27T17:27:17.887Z,15.56
2022-10-27T17:29:46.916Z,15.51
2022-10-27T17:32:15.421Z,15.47
2022-10-27T17:34:43.443Z,15.40
2022-10-27T17:37:13.989Z,15.46
2022-10-27T17:39:41.924Z,15.38
2022-10-27T17:42:10.261Z,15.31
2022-10-27T17:44:38.154Z,15.34
2022-10-27T17:47:07.394Z,15.34
2022-10-27T17:49:35.318Z,15.37
2022-10-27T17:52:03.343Z,15.39
2022-10-27T17:54:32.579Z,15.36
2022-10-27T17:57:00.478Z,15.31
2022-10-27T17:59:28.565Z,15.30
2022-10-27T18:01:56.500Z,15.30
2022-10-27T18:04:24.466Z,15.29
2022-10-27T18:06:52.358Z,15.22
2022-10-27T18:09:20.357Z,15.26
2022-10-27T18:11:49.594Z,15.25
2022-10-27T18:14:19.300Z,15.31
2022-10-27T18:16:47.520Z,15.30
2022-10-27T18:19:16.903Z,15.19
2022-10-27T18:21:46.180Z,15.17
2022-10-27T18:24:15.674Z,15.21
2022-10-27T18:26:45.824Z,15.11
2022-10-27T18:29:17.001Z,15.03
2022-10-27T18:31:46.772Z,14.97
2022-10-27T18:34:15.780Z,15.07
2022-10-27T18:36:45.382Z,15.12
2022-10-27T18:39:16.695Z,15.01
2022-10-27T18:41:45.289Z,14.95
2022-10-27T18:44:14.831Z,14.91
2022-10-27T18:46:42.666Z,14.87
2022-10-27T18:49:16.090Z,14.86
2022-10-27T18:51:53.170Z,14.82
2022-10-27T18:54:21.176Z,14.82
2022-10-27T18:56:49.256Z,14.83
2022-10-27T18:59:18.570Z,14.77
2022-10-27T19:01:47.653Z,14.72
2022-10-27T19:04:15.878Z,14.79
2022-10-27T19:06:43.879Z,14.75
2022-10-27T19:09:12.593Z,14.72
2022-10-27T19:11:40.513Z,14.70
2022-10-27T19:14:08.455Z,14.73
2022-10-27T19:16:38.197Z,14.72
2022-10-27T19:19:06.361Z,14.76
2022-10-27T19:21:34.388Z,14.74
2022-10-27T19:24:03.040Z,14.75
2022-10-27T19:26:32.347Z,14.77
2022-10-27T19:29:00.726Z,14.72
2022-10-27T19:31:30.824Z,14.71
2022-10-27T19:34:00.410Z,14.65
2022-10-27T19:36:29.756Z,14.66
2022-10-27T19:38:58.487Z,14.67
2022-10-27T19:41:28.891Z,14.61
2022-10-27T19:43:57.059Z,14.59
2022-10-27T19:46:26.034Z,14.51
2022-10-27T19:48:54.644Z,14.46
2022-10-27T19:51:26.069Z,14.50
2022-10-27T19:53:56.374Z,14.49
2022-10-27T19:56:25.521Z,14.47
2022-10-27T19:58:54.349Z,14.46
2022-10-27T20:01:23.916Z,14.42
2022-10-27T20:03:52.995Z,14.35
2022-10-27T20:06:21.090Z,14.37
2022-10-27T20:08:55.831Z,14.34
2022-10-27T20:11:26.104Z,14.35
2022-10-27T20:13:55.480Z,14.30
2022-10-27T20:16:25.299Z,14.29
2022-10-27T20:18:53.542Z,14.35
2022-10-27T20:21:21.602Z,14.37
2022-10-27T20:23:50.991Z,14.39
2022-10-27T20:26:34.404Z,14.40
2022-10-27T20:29:02.162Z,14.39
2022-10-27T20:31:30.353Z,14.39
2022-10-27T20:33:58.947Z,14.47
2022-10-27T20:36:27.484Z,14.51
2022-10-27T20:38:57.600Z,14.52
2022-10-27T20:41:27.819Z,14.52
2022-10-27T20:43:56.181Z,14.48
2022-10-27T20:46:29.065Z,14.48
2022-10-27T20:48:58.213Z,14.54
2022-10-27T20:51:27.779Z,14.57
2022-10-27T20:53:57.102Z,14.57
2022-10-27T20:56:26.698Z,14.55
2022-10-27T20:58:54.799Z,14.52
2022-10-27T21:01:28.819Z,14.62
2022-10-27T21:03:57.871Z,14.62
2022-10-27T21:06:27.179Z,14.62
2022-10-27T21:08:55.645Z,14.66
2022-10-27T21:11:25.209Z,14.74
2022-10-27T21:13:54.466Z,14.72
2022-10-27T21:16:22.826Z,14.75
2022-10-27T21:18:51.351Z,14.72
2022-10-27T21:21:19.986Z,14.71
2022-10-27T21:23:48.369Z,14.70
2022-10-27T21:26:16.584Z,14.74
2022-10-27T21:28:49.730Z,14.82
2022-10-27T21:31:17.582Z,14.76
2022-10-27T21:33:45.537Z,14.84
2022-10-27T21:36:13.834Z,14.86
2022-10-27T21:38:42.652Z,14.85
2022-10-27T21:41:12.037Z,14.88
2022-10-27T21:43:41.350Z,14.84
2022-10-27T21:46:12.197Z,14.89
2022-10-27T21:48:40.113Z,14.84
2022-10-27T21:51:08.360Z,14.91
2022-10-27T21:53:36.199Z,14.94
2022-10-27T21:56:05.904Z,14.91
2022-10-27T21:58:35.963Z,14.95
2022-10-27T22:01:08.199Z,15.02
2022-10-27T22:03:37.976Z,14.96
2022-10-27T22:06:06.823Z,15.00
2022-10-27T22:08:36.032Z,15.09
2022-10-27T22:11:04.783Z,15.01
2022-10-27T22:13:33.001Z,14.99
2022-10-27T22:16:07.768Z,15.07
2022-10-27T22:18:37.419Z,15.07
2022-10-27T22:21:06.032Z,14.99
2022-10-27T22:23:33.931Z,15.12
2022-10-27T22:26:05.756Z,15.04
2022-10-27T22:28:33.891Z,15.00
2022-10-27T22:31:06.177Z,15.03
2022-10-27T22:33:34.498Z,15.03
2022-10-27T22:36:04.641Z,14.97
2022-10-27T22:38:32.906Z,14.95
2022-10-27T22:41:01.784Z,14.88
2022-10-27T22:43:29.790Z,14.88
2022-10-27T22:45:57.773Z,14.78
2022-10-27T22:48:26.175Z,14.73
2022-10-27T22:51:00.367Z,14.74
2022-10-27T22:53:31.678Z,14.73
2022-10-27T22:56:04.404Z,14.63
2022-10-27T22:58:32.319Z,14.60
2022-10-27T23:01:05.168Z,14.58
2022-10-27T23:03:32.866Z,14.59
2022-10-27T23:06:01.490Z,14.57
2022-10-27T23:08:30.843Z,14.56
2022-10-27T23:10:59.893Z,14.59
2022-10-27T23:13:28.998Z,14.63
2022-10-27T23:15:57.558Z,14.61
2022-10-27T23:18:26.133Z,14.56
2022-10-27T23:20:56.236Z,14.58
2022-10-27T23:23:24.072Z,14.53
2022-10-27T23:25:53.482Z,14.56
2022-10-27T23:28:22.154Z,14.54
2022-10-27T23:30:50.156Z,14.54
2022-10-27T23:33:18.538Z,14.55
2022-10-27T23:35:56.425Z,14.72
2022-10-27T23:40:59.666Z,14.63
2022-10-27T23:43:28.882Z,14.63
2022-10-27T23:46:01.388Z,14.71
2022-10-27T23:48:30.074Z,14.67
2022-10-27T23:50:58.161Z,14.65
2022-10-27T23:53:26.544Z,14.68
2022-10-27T23:55:55.807Z,14.59
2022-10-27T23:58:25.461Z,14.56
